createdAt,value
2017-10-20T00:01:10.713Z,0
2017-10-20T00:02:23.276Z,0
2017-10-20T00:03:35.836Z,0
2017-10-20T00:04:47.768Z,0
2017-10-20T00:06:00.572Z,0
2017-10-20T00:07:12.835Z,0
2017-10-20T00:08:25.391Z,0
2017-10-20T00:09:37.962Z,0
2017-10-20T00:10:50.208Z,0
2017-10-20T00:12:02.779Z,0
2017-10-20T00:13:15.346Z,0
2017-10-20T00:14:27.283Z,0
2017-10-20T00:15:39.513Z,0
2017-10-20T00:16:52.087Z,0
2017-10-20T00:18:04.671Z,0
2017-10-20T00:19:16.607Z,0
2017-10-20T00:20:28.843Z,0
2017-10-20T00:21:41.433Z,0
2017-10-20T00:22:53.988Z,0
2017-10-20T00:24:06.572Z,0
2017-10-20T00:25:18.807Z,0
2017-10-20T00:26:31.376Z,0
2017-10-20T00:27:43.636Z,0
2017-10-20T00:28:56.206Z,0
2017-10-20T00:30:08.787Z,0
2017-10-20T00:31:21.355Z,0
2017-10-20T00:32:33.903Z,0
2017-10-20T00:33:45.839Z,0
2017-10-20T00:34:58.393Z,0
2017-10-20T00:36:10.682Z,0
2017-10-20T00:37:22.910Z,0
2017-10-20T00:38:35.481Z,0
2017-10-20T00:39:48.050Z,0
2017-10-20T00:41:00.625Z,0
2017-10-20T00:42:12.219Z,0
2017-10-20T00:43:24.479Z,0
2017-10-20T00:44:37.033Z,0
2017-10-20T00:45:49.620Z,0
2017-10-20T00:47:02.175Z,0
2017-10-20T00:48:14.423Z,0
2017-10-20T00:49:27.290Z,0
2017-10-20T00:50:39.861Z,0
2017-10-20T00:51:52.449Z,0
2017-10-20T00:53:05.019Z,0
2017-10-20T00:54:17.598Z,0
2017-10-20T00:55:29.846Z,0
2017-10-20T00:56:42.417Z,0
2017-10-20T00:57:55.001Z,0
2017-10-20T00:59:07.232Z,0
2017-10-20T01:00:19.731Z,0
2017-10-20T01:01:32.318Z,0
2017-10-20T01:02:44.886Z,0
2017-10-20T01:03:57.138Z,0
2017-10-20T01:05:09.736Z,0
2017-10-20T01:06:22.306Z,0
2017-10-20T01:07:34.550Z,0
2017-10-20T01:08:46.489Z,0
2017-10-20T01:09:59.058Z,0
2017-10-20T01:11:11.612Z,0
2017-10-20T01:12:24.182Z,0
2017-10-20T01:13:36.120Z,0
2017-10-20T01:14:48.677Z,0
2017-10-20T01:16:00.595Z,0
2017-10-20T01:17:12.842Z,0
2017-10-20T01:18:25.114Z,0
2017-10-20T01:19:37.382Z,0
2017-10-20T01:20:49.955Z,0
2017-10-20T01:22:02.529Z,0
2017-10-20T01:23:15.135Z,0
2017-10-20T01:24:27.693Z,0
2017-10-20T01:25:39.302Z,0
2017-10-20T01:26:51.855Z,0
2017-10-20T01:28:04.093Z,0
2017-10-20T01:29:16.651Z,0
2017-10-20T01:30:29.244Z,0
2017-10-20T01:31:41.489Z,0
2017-10-20T01:32:54.001Z,0
2017-10-20T01:34:06.232Z,0
2017-10-20T01:35:18.478Z,0
2017-10-20T01:36:31.074Z,0
2017-10-20T01:37:43.642Z,0
2017-10-20T01:38:56.217Z,0
2017-10-20T01:40:08.477Z,0
2017-10-20T01:41:20.727Z,0
2017-10-20T01:42:32.954Z,0
2017-10-20T01:43:45.548Z,0
2017-10-20T01:44:58.132Z,0
2017-10-20T01:46:10.381Z,0
2017-10-20T01:47:22.950Z,0
2017-10-20T01:48:35.506Z,0
2017-10-20T01:49:48.075Z,0
2017-10-20T01:51:00.660Z,0
2017-10-20T01:52:12.893Z,0
2017-10-20T01:53:25.466Z,0
2017-10-20T01:54:38.034Z,0
2017-10-20T01:55:50.600Z,0
2017-10-20T01:57:03.164Z,0
2017-10-20T01:58:15.718Z,0
2017-10-20T01:59:27.963Z,0
2017-10-20T02:00:40.534Z,0
2017-10-20T02:01:53.106Z,0
2017-10-20T02:03:05.701Z,0
2017-10-20T02:04:17.963Z,0
2017-10-20T02:05:30.445Z,0
2017-10-20T02:06:43.014Z,0
2017-10-20T02:07:55.582Z,0
2017-10-20T02:09:07.833Z,0
2017-10-20T02:10:20.403Z,0
2017-10-20T02:11:32.324Z,0
2017-10-20T02:12:44.894Z,0
2017-10-20T02:13:57.463Z,0
2017-10-20T02:15:10.031Z,0
2017-10-20T02:16:22.296Z,0
2017-10-20T02:17:34.889Z,0
2017-10-20T02:18:47.160Z,0
2017-10-20T02:19:59.715Z,0
2017-10-20T02:21:12.301Z,0
2017-10-20T02:22:24.859Z,0
2017-10-20T02:23:37.429Z,0
2017-10-20T02:24:50.000Z,0
2017-10-20T02:26:02.585Z,0
2017-10-20T02:27:15.137Z,0
2017-10-20T02:28:27.400Z,0
2017-10-20T02:29:39.958Z,0
2017-10-20T02:30:52.542Z,0
2017-10-20T02:32:05.102Z,0
2017-10-20T02:33:17.343Z,0
2017-10-20T02:34:29.913Z,0
2017-10-20T02:35:42.160Z,0
2017-10-20T02:36:54.082Z,0
2017-10-20T02:38:06.652Z,0
2017-10-20T02:39:18.900Z,0
2017-10-20T02:40:31.483Z,0
2017-10-20T02:41:43.752Z,0
2017-10-20T02:42:56.334Z,0
2017-10-20T02:44:08.294Z,0
2017-10-20T02:45:20.864Z,0
2017-10-20T02:46:33.111Z,0
2017-10-20T02:47:45.338Z,0
2017-10-20T02:48:58.211Z,0
2017-10-20T02:50:09.808Z,0
2017-10-20T02:51:22.385Z,0
2017-10-20T02:52:34.947Z,0
2017-10-20T02:53:47.539Z,0
2017-10-20T02:54:59.468Z,0
2017-10-20T02:56:11.715Z,0
2017-10-20T02:57:23.979Z,0
2017-10-20T02:58:36.247Z,0
2017-10-20T02:59:48.722Z,0
2017-10-20T03:01:01.295Z,0
2017-10-20T03:02:13.865Z,0
2017-10-20T03:03:26.433Z,0
2017-10-20T03:04:38.695Z,0
2017-10-20T03:05:51.249Z,0
2017-10-20T03:07:03.510Z,0
2017-10-20T03:08:15.432Z,0
2017-10-20T03:09:27.340Z,0
2017-10-20T03:10:39.924Z,0
2017-10-20T03:11:52.481Z,0
2017-10-20T03:13:05.048Z,0
2017-10-20T03:14:17.617Z,0
2017-10-20T03:15:30.189Z,0
2017-10-20T03:16:42.760Z,0
2017-10-20T03:17:55.336Z,0
2017-10-20T03:19:07.618Z,0
2017-10-20T03:20:20.175Z,0
2017-10-20T03:21:32.359Z,0
2017-10-20T03:22:44.616Z,0
2017-10-20T03:23:56.876Z,0
2017-10-20T03:25:09.429Z,0
2017-10-20T03:26:21.999Z,0
2017-10-20T03:27:34.598Z,0
2017-10-20T03:28:46.844Z,0
2017-10-20T03:29:59.104Z,0
2017-10-20T03:31:11.733Z,0
2017-10-20T03:32:24.003Z,0
2017-10-20T03:33:35.940Z,0
2017-10-20T03:34:48.497Z,0
2017-10-20T03:36:00.739Z,0
2017-10-20T03:37:12.660Z,0
2017-10-20T03:38:25.260Z,0
2017-10-20T03:39:37.833Z,0
2017-10-20T03:40:50.414Z,0
2017-10-20T03:42:02.660Z,0
2017-10-20T03:43:15.215Z,0
2017-10-20T03:44:27.787Z,0
2017-10-20T03:45:40.357Z,0
2017-10-20T03:46:52.942Z,0
2017-10-20T03:48:05.188Z,0
2017-10-20T03:49:17.741Z,0
2017-10-20T03:50:30.330Z,0
2017-10-20T03:51:42.907Z,0
2017-10-20T03:52:55.454Z,0
2017-10-20T03:54:08.028Z,0
2017-10-20T03:55:19.946Z,0
2017-10-20T03:56:32.518Z,0
2017-10-20T03:57:44.803Z,0
2017-10-20T03:58:57.358Z,0
2017-10-20T04:00:09.604Z,0
2017-10-20T04:01:21.532Z,0
2017-10-20T04:02:33.785Z,0
2017-10-20T04:03:46.017Z,0
2017-10-20T04:04:58.589Z,0
2017-10-20T04:06:11.161Z,0
2017-10-20T04:07:23.743Z,0
2017-10-20T04:08:36.299Z,0
2017-10-20T04:09:48.869Z,0
2017-10-20T04:11:01.443Z,0
2017-10-20T04:12:14.014Z,0
2017-10-20T04:13:25.932Z,0
2017-10-20T04:14:38.174Z,0
2017-10-20T04:15:50.422Z,0
2017-10-20T04:17:02.993Z,0
2017-10-20T04:18:15.563Z,0
2017-10-20T04:19:27.809Z,0
2017-10-20T04:20:40.057Z,0
2017-10-20T04:21:52.627Z,0
2017-10-20T04:23:04.878Z,0
2017-10-20T04:24:17.467Z,0
2017-10-20T04:25:30.037Z,0
2017-10-20T04:26:42.856Z,0
2017-10-20T04:27:55.103Z,0
2017-10-20T04:29:07.354Z,0
2017-10-20T04:30:19.945Z,0
2017-10-20T04:31:31.881Z,0
2017-10-20T04:32:43.786Z,0
2017-10-20T04:33:56.032Z,0
2017-10-20T04:35:08.298Z,0
2017-10-20T04:36:20.546Z,0
2017-10-20T04:37:33.109Z,0
2017-10-20T04:38:45.664Z,0
2017-10-20T04:39:57.912Z,0
2017-10-20T04:41:10.171Z,0
2017-10-20T04:42:22.424Z,0
2017-10-20T04:43:34.687Z,0
2017-10-20T04:44:46.283Z,0
2017-10-20T04:45:58.837Z,0
2017-10-20T04:47:11.411Z,0
2017-10-20T04:48:24.299Z,0
2017-10-20T04:49:36.866Z,0
2017-10-20T04:50:49.420Z,0
2017-10-20T04:52:01.667Z,0
2017-10-20T04:53:14.235Z,0
2017-10-20T04:54:26.808Z,0
2017-10-20T04:55:39.394Z,0
2017-10-20T04:56:51.949Z,0
2017-10-20T04:58:04.520Z,0
2017-10-20T04:59:17.338Z,0
2017-10-20T05:00:29.912Z,0
2017-10-20T05:01:42.481Z,0
2017-10-20T05:02:54.731Z,0
2017-10-20T05:04:07.313Z,0
2017-10-20T05:05:19.542Z,0
2017-10-20T05:06:32.118Z,0
2017-10-20T05:07:44.681Z,0
2017-10-20T05:08:57.234Z,0
2017-10-20T05:10:09.792Z,0
2017-10-20T05:11:22.345Z,0
2017-10-20T05:12:34.607Z,0
2017-10-20T05:13:47.163Z,0
2017-10-20T05:14:59.748Z,0
2017-10-20T05:16:11.994Z,0
2017-10-20T05:17:24.240Z,0
2017-10-20T05:18:36.493Z,0
2017-10-20T05:19:49.082Z,0
2017-10-20T05:21:01.005Z,0
2017-10-20T05:22:13.247Z,0
2017-10-20T05:23:25.808Z,0
2017-10-20T05:24:38.047Z,0
2017-10-20T05:25:50.295Z,0
2017-10-20T05:27:02.855Z,0
2017-10-20T05:28:15.434Z,0
2017-10-20T05:29:28.009Z,0
2017-10-20T05:30:40.585Z,0
2017-10-20T05:31:53.072Z,0
2017-10-20T05:33:05.663Z,0
2017-10-20T05:34:17.583Z,0
2017-10-20T05:35:29.201Z,0
2017-10-20T05:36:41.447Z,5
2017-10-20T05:37:53.391Z,5
2017-10-20T05:39:05.323Z,5
2017-10-20T05:40:17.566Z,5
2017-10-20T05:41:29.812Z,5
2017-10-20T05:42:42.331Z,5
2017-10-20T05:43:54.569Z,10
2017-10-20T05:45:07.126Z,10
2017-10-20T05:46:19.370Z,10
2017-10-20T05:47:31.615Z,10
2017-10-20T05:48:44.189Z,15
2017-10-20T05:49:56.430Z,15
2017-10-20T05:51:09.005Z,15
2017-10-20T05:52:21.573Z,15
2017-10-20T05:53:33.817Z,20
2017-10-20T05:54:46.380Z,20
2017-10-20T05:55:58.951Z,20
2017-10-20T05:57:10.872Z,25
2017-10-20T05:58:23.124Z,25
2017-10-20T05:59:35.370Z,25
2017-10-20T06:00:47.947Z,30
2017-10-20T06:02:00.204Z,30
2017-10-20T06:03:12.775Z,35
2017-10-20T06:04:24.706Z,35
2017-10-20T06:05:37.277Z,40
2017-10-20T06:06:49.542Z,40
2017-10-20T06:08:02.106Z,40
2017-10-20T06:09:14.335Z,45
2017-10-20T06:10:26.280Z,45
2017-10-20T06:11:38.855Z,50
2017-10-20T06:12:51.426Z,50
2017-10-20T06:14:03.694Z,50
2017-10-20T06:15:16.267Z,50
2017-10-20T06:16:28.201Z,55
2017-10-20T06:17:40.759Z,55
2017-10-20T06:18:53.004Z,55
2017-10-20T06:20:05.264Z,55
2017-10-20T06:21:17.520Z,60
2017-10-20T06:22:29.782Z,60
2017-10-20T06:23:41.714Z,60
2017-10-20T06:24:53.971Z,65
2017-10-20T06:26:06.775Z,65
2017-10-20T06:27:19.347Z,65
2017-10-20T06:28:31.600Z,70
2017-10-20T06:29:43.854Z,70
2017-10-20T06:30:56.411Z,70
2017-10-20T06:32:08.979Z,75
2017-10-20T06:33:21.566Z,75
2017-10-20T06:34:34.120Z,75
2017-10-20T06:35:46.690Z,80
2017-10-20T06:36:58.953Z,80
2017-10-20T06:38:11.198Z,80
2017-10-20T06:39:23.443Z,85
2017-10-20T06:40:35.998Z,85
2017-10-20T06:41:48.310Z,85
2017-10-20T06:43:00.580Z,85
2017-10-20T06:44:13.141Z,90
2017-10-20T06:45:25.747Z,90
2017-10-20T06:46:38.043Z,90
2017-10-20T06:47:50.613Z,95
2017-10-20T06:49:03.185Z,95
2017-10-20T06:50:15.770Z,95
2017-10-20T06:51:27.384Z,100
2017-10-20T06:52:39.955Z,100
2017-10-20T06:53:52.526Z,100
2017-10-20T06:55:05.095Z,100
2017-10-20T06:56:17.341Z,105
2017-10-20T06:57:29.588Z,105
2017-10-20T06:58:41.836Z,105
2017-10-20T06:59:54.081Z,105
2017-10-20T07:01:06.341Z,110
2017-10-20T07:02:18.571Z,110
2017-10-20T07:03:31.165Z,110
2017-10-20T07:04:43.746Z,110
2017-10-20T07:05:56.323Z,115
2017-10-20T07:07:08.581Z,115
2017-10-20T07:08:21.168Z,115
2017-10-20T07:09:33.118Z,120
2017-10-20T07:10:45.698Z,120
2017-10-20T07:11:57.628Z,120
2017-10-20T07:13:10.203Z,125
2017-10-20T07:14:22.443Z,125
2017-10-20T07:15:34.688Z,125
2017-10-20T07:16:47.259Z,130
2017-10-20T07:17:59.814Z,130
2017-10-20T07:19:12.061Z,130
2017-10-20T07:20:24.882Z,130
2017-10-20T07:21:36.801Z,130
2017-10-20T07:22:49.071Z,130
2017-10-20T07:24:01.642Z,135
2017-10-20T07:25:14.216Z,135
2017-10-20T07:26:26.789Z,135
2017-10-20T07:27:39.052Z,135
2017-10-20T07:28:51.601Z,135
2017-10-20T07:30:04.194Z,140
2017-10-20T07:31:16.442Z,140
2017-10-20T07:32:28.377Z,140
2017-10-20T07:33:40.633Z,140
2017-10-20T07:34:52.570Z,140
2017-10-20T07:36:05.125Z,145
2017-10-20T07:37:17.374Z,145
2017-10-20T07:38:29.956Z,145
2017-10-20T07:39:42.511Z,145
2017-10-20T07:40:54.805Z,145
2017-10-20T07:42:07.382Z,145
2017-10-20T07:43:19.953Z,150
2017-10-20T07:44:32.521Z,150
2017-10-20T07:45:44.779Z,150
2017-10-20T07:46:57.025Z,150
2017-10-20T07:48:09.605Z,150
2017-10-20T07:49:22.193Z,150
2017-10-20T07:50:34.747Z,150
2017-10-20T07:51:47.320Z,150
2017-10-20T07:52:59.529Z,150
2017-10-20T07:54:12.127Z,155
2017-10-20T07:55:24.070Z,155
2017-10-20T07:56:36.625Z,155
2017-10-20T07:57:48.869Z,160
2017-10-20T07:59:01.465Z,160
2017-10-20T08:00:13.727Z,160
2017-10-20T08:01:26.307Z,160
2017-10-20T08:02:38.895Z,165
2017-10-20T08:03:51.465Z,165
2017-10-20T08:05:04.022Z,160
2017-10-20T08:06:16.291Z,165
2017-10-20T08:07:28.860Z,165
2017-10-20T08:08:41.455Z,165
2017-10-20T08:09:53.717Z,165
2017-10-20T08:11:06.298Z,165
2017-10-20T08:12:18.545Z,165
2017-10-20T08:13:31.114Z,170
2017-10-20T08:14:43.685Z,175
2017-10-20T08:15:56.252Z,190
2017-10-20T08:17:08.502Z,205
2017-10-20T08:18:21.077Z,210
2017-10-20T08:19:33.642Z,215
2017-10-20T08:20:45.930Z,225
2017-10-20T08:21:58.217Z,225
2017-10-20T08:23:10.205Z,225
2017-10-20T08:24:22.517Z,225
2017-10-20T08:25:35.171Z,235
2017-10-20T08:26:47.483Z,245
2017-10-20T08:27:59.140Z,265
2017-10-20T08:29:10.811Z,280
2017-10-20T08:30:23.137Z,295
2017-10-20T08:31:35.453Z,300
2017-10-20T08:32:47.795Z,300
2017-10-20T08:34:00.423Z,295
2017-10-20T08:35:13.040Z,285
2017-10-20T08:36:25.681Z,275
2017-10-20T08:37:38.022Z,275
2017-10-20T08:38:50.009Z,250
2017-10-20T08:40:02.678Z,230
2017-10-20T08:41:15.292Z,215
2017-10-20T08:42:27.585Z,220
2017-10-20T08:43:40.238Z,230
2017-10-20T08:44:52.878Z,255
2017-10-20T08:46:05.200Z,280
2017-10-20T08:47:17.845Z,300
2017-10-20T08:48:29.843Z,320
2017-10-20T08:49:42.187Z,335
2017-10-20T08:50:54.537Z,320
2017-10-20T08:52:06.533Z,320
2017-10-20T08:53:19.166Z,320
2017-10-20T08:54:31.473Z,310
2017-10-20T08:55:43.768Z,290
2017-10-20T08:56:56.066Z,270
2017-10-20T08:58:08.933Z,260
2017-10-20T08:59:21.235Z,250
2017-10-20T09:00:33.880Z,255
2017-10-20T09:01:46.491Z,275
2017-10-20T09:02:59.139Z,280
2017-10-20T09:04:11.435Z,290
2017-10-20T09:05:24.085Z,280
2017-10-20T09:06:36.709Z,280
2017-10-20T09:07:49.020Z,275
2017-10-20T09:09:01.639Z,265
2017-10-20T09:10:13.667Z,255
2017-10-20T09:11:25.663Z,235
2017-10-20T09:12:38.284Z,230
2017-10-20T09:13:50.923Z,215
2017-10-20T09:15:03.571Z,220
2017-10-20T09:16:16.191Z,220
2017-10-20T09:17:28.208Z,220
2017-10-20T09:18:40.541Z,220
2017-10-20T09:19:52.780Z,220
2017-10-20T09:21:05.100Z,215
2017-10-20T09:22:17.745Z,215
2017-10-20T09:23:29.747Z,215
2017-10-20T09:24:42.063Z,220
2017-10-20T09:25:54.381Z,230
2017-10-20T09:27:06.705Z,245
2017-10-20T09:28:19.323Z,260
2017-10-20T09:29:31.947Z,275
2017-10-20T09:30:44.253Z,300
2017-10-20T09:31:56.915Z,310
2017-10-20T09:33:08.886Z,320
2017-10-20T09:34:21.498Z,335
2017-10-20T09:35:34.136Z,350
2017-10-20T09:36:46.777Z,380
2017-10-20T09:37:59.410Z,385
2017-10-20T09:39:12.031Z,390
2017-10-20T09:40:24.326Z,385
2017-10-20T09:41:36.575Z,390
2017-10-20T09:42:48.888Z,395
2017-10-20T09:44:01.567Z,415
2017-10-20T09:45:13.890Z,420
2017-10-20T09:46:25.885Z,430
2017-10-20T09:47:38.199Z,445
2017-10-20T09:48:50.879Z,455
2017-10-20T09:50:02.880Z,455
2017-10-20T09:51:14.865Z,445
2017-10-20T09:52:27.486Z,460
2017-10-20T09:53:39.816Z,455
2017-10-20T09:54:52.107Z,450
2017-10-20T09:56:04.438Z,475
2017-10-20T09:57:16.723Z,490
2017-10-20T09:58:29.393Z,515
2017-10-20T09:59:41.750Z,535
2017-10-20T10:00:54.079Z,580
2017-10-20T10:02:06.366Z,565
2017-10-20T10:03:18.665Z,565
2017-10-20T10:04:31.313Z,545
2017-10-20T10:05:43.340Z,540
2017-10-20T10:06:55.662Z,530
2017-10-20T10:08:08.279Z,520
2017-10-20T10:09:20.941Z,515
2017-10-20T10:10:33.271Z,520
2017-10-20T10:11:45.921Z,520
2017-10-20T10:12:58.234Z,525
2017-10-20T10:14:10.560Z,525
2017-10-20T10:15:23.204Z,520
2017-10-20T10:16:35.542Z,525
2017-10-20T10:17:47.546Z,510
2017-10-20T10:18:59.554Z,495
2017-10-20T10:20:11.891Z,485
2017-10-20T10:21:23.857Z,465
2017-10-20T10:22:36.151Z,455
2017-10-20T10:23:48.827Z,455
2017-10-20T10:25:01.490Z,450
2017-10-20T10:26:13.489Z,455
2017-10-20T10:27:26.124Z,450
2017-10-20T10:28:38.728Z,450
2017-10-20T10:29:51.382Z,450
2017-10-20T10:31:04.006Z,455
2017-10-20T10:32:16.331Z,455
2017-10-20T10:33:28.998Z,460
2017-10-20T10:34:41.633Z,465
2017-10-20T10:35:53.977Z,455
2017-10-20T10:37:06.650Z,445
2017-10-20T10:38:19.268Z,435
2017-10-20T10:39:31.936Z,420
2017-10-20T10:40:44.600Z,415
2017-10-20T10:41:56.913Z,425
2017-10-20T10:43:09.558Z,455
2017-10-20T10:44:21.916Z,490
2017-10-20T10:45:34.517Z,525
2017-10-20T10:46:46.499Z,550
2017-10-20T10:47:58.796Z,560
2017-10-20T10:49:11.155Z,535
2017-10-20T10:50:23.475Z,515
2017-10-20T10:51:36.115Z,475
2017-10-20T10:52:48.772Z,445
2017-10-20T10:54:01.431Z,425
2017-10-20T10:55:13.113Z,400
2017-10-20T10:56:25.799Z,380
2017-10-20T10:57:38.678Z,385
2017-10-20T10:58:50.990Z,405
2017-10-20T11:00:03.298Z,425
2017-10-20T11:01:15.939Z,440
2017-10-20T11:02:28.597Z,445
2017-10-20T11:03:41.272Z,455
2017-10-20T11:04:53.929Z,460
2017-10-20T11:06:06.244Z,450
2017-10-20T11:07:18.589Z,445
2017-10-20T11:08:30.912Z,445
2017-10-20T11:09:42.900Z,430
2017-10-20T11:10:55.524Z,415
2017-10-20T11:12:07.525Z,410
2017-10-20T11:13:19.852Z,420
2017-10-20T11:14:32.471Z,450
2017-10-20T11:15:45.139Z,475
2017-10-20T11:16:57.458Z,465
2017-10-20T11:18:09.780Z,445
2017-10-20T11:19:22.101Z,415
2017-10-20T11:20:34.715Z,380
2017-10-20T11:21:47.015Z,345
2017-10-20T11:22:59.014Z,335
2017-10-20T11:24:11.029Z,335
2017-10-20T11:25:23.656Z,335
2017-10-20T11:26:36.000Z,325
2017-10-20T11:27:48.334Z,310
2017-10-20T11:29:00.314Z,295
2017-10-20T11:30:12.935Z,275
2017-10-20T11:31:25.583Z,265
2017-10-20T11:32:38.225Z,255
2017-10-20T11:33:50.887Z,245
2017-10-20T11:35:03.538Z,235
2017-10-20T11:36:15.550Z,225
2017-10-20T11:37:28.210Z,215
2017-10-20T11:38:40.195Z,210
2017-10-20T11:39:52.849Z,205
2017-10-20T11:41:05.510Z,195
2017-10-20T11:42:17.819Z,185
2017-10-20T11:43:30.132Z,175
2017-10-20T11:44:42.492Z,170
2017-10-20T11:45:55.157Z,160
2017-10-20T11:47:07.446Z,150
2017-10-20T11:48:19.436Z,150
2017-10-20T11:49:31.762Z,155
2017-10-20T11:50:44.399Z,165
2017-10-20T11:51:56.738Z,175
2017-10-20T11:53:09.401Z,190
2017-10-20T11:54:22.047Z,200
2017-10-20T11:55:34.393Z,205
2017-10-20T11:56:47.014Z,200
2017-10-20T11:57:59.317Z,190
2017-10-20T11:59:11.654Z,180
2017-10-20T12:00:23.981Z,165
2017-10-20T12:01:36.272Z,155
2017-10-20T12:02:49.157Z,150
2017-10-20T12:04:01.788Z,150
2017-10-20T12:05:13.780Z,145
2017-10-20T12:06:26.423Z,150
2017-10-20T12:07:38.753Z,145
2017-10-20T12:08:51.391Z,145
2017-10-20T12:10:03.380Z,145
2017-10-20T12:11:16.018Z,160
2017-10-20T12:12:28.310Z,170
2017-10-20T12:13:40.605Z,200
2017-10-20T12:14:53.269Z,230
2017-10-20T12:16:05.571Z,250
2017-10-20T12:17:18.228Z,250
2017-10-20T12:18:30.862Z,235
2017-10-20T12:19:43.523Z,215
2017-10-20T12:20:56.150Z,180
2017-10-20T12:22:08.472Z,150
2017-10-20T12:23:21.135Z,135
2017-10-20T12:24:32.814Z,125
2017-10-20T12:25:44.484Z,120
2017-10-20T12:26:57.176Z,125
2017-10-20T12:28:09.480Z,145
2017-10-20T12:29:21.464Z,165
2017-10-20T12:30:34.141Z,175
2017-10-20T12:31:46.785Z,180
2017-10-20T12:32:59.457Z,165
2017-10-20T12:34:11.457Z,150
2017-10-20T12:35:24.096Z,145
2017-10-20T12:36:36.420Z,140
2017-10-20T12:37:49.047Z,140
2017-10-20T12:39:01.357Z,150
2017-10-20T12:40:13.396Z,165
2017-10-20T12:41:26.023Z,175
2017-10-20T12:42:38.326Z,185
2017-10-20T12:43:50.293Z,185
2017-10-20T12:45:02.945Z,185
2017-10-20T12:46:15.570Z,175
2017-10-20T12:47:28.243Z,165
2017-10-20T12:48:40.247Z,155
2017-10-20T12:49:52.577Z,150
2017-10-20T12:51:05.221Z,145
2017-10-20T12:52:17.857Z,140
2017-10-20T12:53:30.150Z,135
2017-10-20T12:54:42.808Z,130
2017-10-20T12:55:55.150Z,130
2017-10-20T12:57:07.442Z,130
2017-10-20T12:58:20.093Z,130
2017-10-20T12:59:32.783Z,130
2017-10-20T13:00:45.383Z,125
2017-10-20T13:01:58.026Z,120
2017-10-20T13:03:10.346Z,110
2017-10-20T13:04:22.975Z,105
2017-10-20T13:05:35.286Z,105
2017-10-20T13:06:47.627Z,105
2017-10-20T13:08:00.281Z,105
2017-10-20T13:09:12.272Z,105
2017-10-20T13:10:24.922Z,115
2017-10-20T13:11:36.567Z,125
2017-10-20T13:12:49.210Z,140
2017-10-20T13:14:01.188Z,165
2017-10-20T13:15:13.834Z,190
2017-10-20T13:16:26.477Z,215
2017-10-20T13:17:38.796Z,230
2017-10-20T13:18:51.692Z,225
2017-10-20T13:20:04.338Z,225
2017-10-20T13:21:16.661Z,225
2017-10-20T13:22:29.291Z,220
2017-10-20T13:23:41.605Z,215
2017-10-20T13:24:54.220Z,210
2017-10-20T13:26:06.190Z,210
2017-10-20T13:27:18.491Z,210
2017-10-20T13:28:30.828Z,200
2017-10-20T13:29:43.456Z,190
2017-10-20T13:30:56.140Z,190
2017-10-20T13:32:08.486Z,190
2017-10-20T13:33:21.162Z,190
2017-10-20T13:34:33.811Z,185
2017-10-20T13:35:46.130Z,180
2017-10-20T13:36:58.473Z,175
2017-10-20T13:38:10.774Z,180
2017-10-20T13:39:23.430Z,185
2017-10-20T13:40:36.063Z,185
2017-10-20T13:41:47.733Z,190
2017-10-20T13:43:00.393Z,190
2017-10-20T13:44:13.025Z,185
2017-10-20T13:45:25.652Z,180
2017-10-20T13:46:37.941Z,180
2017-10-20T13:47:50.263Z,180
2017-10-20T13:49:02.882Z,175
2017-10-20T13:50:15.521Z,175
2017-10-20T13:51:27.832Z,170
2017-10-20T13:52:40.143Z,165
2017-10-20T13:53:52.481Z,160
2017-10-20T13:55:05.086Z,155
2017-10-20T13:56:17.732Z,145
2017-10-20T13:57:30.053Z,145
2017-10-20T13:58:42.724Z,145
2017-10-20T13:59:55.065Z,145
2017-10-20T14:01:07.062Z,145
2017-10-20T14:02:19.385Z,155
2017-10-20T14:03:31.689Z,155
2017-10-20T14:04:44.022Z,165
2017-10-20T14:05:56.413Z,175
2017-10-20T14:07:09.046Z,180
2017-10-20T14:08:21.693Z,185
2017-10-20T14:09:34.333Z,175
2017-10-20T14:10:46.000Z,160
2017-10-20T14:11:58.300Z,135
2017-10-20T14:13:10.923Z,115
2017-10-20T14:14:23.564Z,90
2017-10-20T14:15:36.228Z,80
2017-10-20T14:16:48.861Z,80
2017-10-20T14:18:01.482Z,80
2017-10-20T14:19:14.113Z,75
2017-10-20T14:20:26.444Z,75
2017-10-20T14:21:38.760Z,80
2017-10-20T14:22:50.735Z,80
2017-10-20T14:24:03.385Z,75
2017-10-20T14:25:15.706Z,70
2017-10-20T14:26:28.023Z,75
2017-10-20T14:27:40.336Z,75
2017-10-20T14:28:52.668Z,85
2017-10-20T14:30:04.686Z,85
2017-10-20T14:31:16.993Z,100
2017-10-20T14:32:29.296Z,110
2017-10-20T14:33:41.998Z,120
2017-10-20T14:34:54.322Z,115
2017-10-20T14:36:06.323Z,100
2017-10-20T14:37:18.959Z,95
2017-10-20T14:38:31.282Z,95
2017-10-20T14:39:43.900Z,110
2017-10-20T14:40:56.223Z,130
2017-10-20T14:42:08.890Z,140
2017-10-20T14:43:20.916Z,135
2017-10-20T14:44:33.553Z,120
2017-10-20T14:45:46.202Z,95
2017-10-20T14:46:58.848Z,85
2017-10-20T14:48:11.223Z,75
2017-10-20T14:49:23.869Z,80
2017-10-20T14:50:36.508Z,85
2017-10-20T14:51:48.177Z,90
2017-10-20T14:53:00.491Z,100
2017-10-20T14:54:13.113Z,90
2017-10-20T14:55:25.737Z,80
2017-10-20T14:56:38.373Z,70
2017-10-20T14:57:51.023Z,60
2017-10-20T14:59:03.298Z,55
2017-10-20T15:00:15.959Z,50
2017-10-20T15:01:28.297Z,50
2017-10-20T15:02:40.939Z,50
2017-10-20T15:03:53.563Z,50
2017-10-20T15:05:06.234Z,55
2017-10-20T15:06:18.884Z,60
2017-10-20T15:07:31.500Z,65
2017-10-20T15:08:44.120Z,65
2017-10-20T15:09:56.772Z,65
2017-10-20T15:11:08.789Z,65
2017-10-20T15:12:21.107Z,65
2017-10-20T15:13:33.750Z,60
2017-10-20T15:14:46.053Z,60
2017-10-20T15:15:58.715Z,60
2017-10-20T15:17:11.345Z,65
2017-10-20T15:18:24.231Z,60
2017-10-20T15:19:36.229Z,55
2017-10-20T15:20:48.214Z,50
2017-10-20T15:22:00.220Z,45
2017-10-20T15:23:12.552Z,45
2017-10-20T15:24:24.864Z,45
2017-10-20T15:25:37.482Z,40
2017-10-20T15:26:49.809Z,40
2017-10-20T15:28:02.454Z,40
2017-10-20T15:29:15.063Z,35
2017-10-20T15:30:27.717Z,35
2017-10-20T15:31:40.363Z,35
2017-10-20T15:32:52.360Z,40
2017-10-20T15:34:04.658Z,35
2017-10-20T15:35:16.649Z,35
2017-10-20T15:36:29.302Z,30
2017-10-20T15:37:41.962Z,25
2017-10-20T15:38:54.587Z,20
2017-10-20T15:40:07.184Z,20
2017-10-20T15:41:19.503Z,20
2017-10-20T15:42:31.794Z,20
2017-10-20T15:43:43.466Z,20
2017-10-20T15:44:55.469Z,20
2017-10-20T15:46:08.110Z,15
2017-10-20T15:47:20.411Z,15
2017-10-20T15:48:32.720Z,15
2017-10-20T15:49:45.056Z,10
2017-10-20T15:50:57.056Z,10
2017-10-20T15:52:09.713Z,5
2017-10-20T15:53:22.035Z,5
2017-10-20T15:54:34.684Z,5
2017-10-20T15:55:47.289Z,5
2017-10-20T15:56:59.923Z,0
2017-10-20T15:58:12.237Z,0
2017-10-20T15:59:24.867Z,0
2017-10-20T16:00:37.148Z,0
2017-10-20T16:01:49.844Z,0
2017-10-20T16:03:02.479Z,0
2017-10-20T16:04:13.814Z,0
2017-10-20T16:05:26.112Z,0
2017-10-20T16:06:38.117Z,0
2017-10-20T16:07:50.103Z,0
2017-10-20T16:09:02.749Z,0
2017-10-20T16:10:14.723Z,0
2017-10-20T16:11:27.052Z,0
2017-10-20T16:12:39.365Z,0
2017-10-20T16:13:51.989Z,0
2017-10-20T16:15:04.293Z,0
2017-10-20T16:16:16.631Z,0
2017-10-20T16:17:28.960Z,0
2017-10-20T16:18:41.610Z,0
2017-10-20T16:19:54.235Z,0
2017-10-20T16:21:06.880Z,0
2017-10-20T16:22:19.199Z,0
2017-10-20T16:23:31.846Z,0
2017-10-20T16:24:44.524Z,0
2017-10-20T16:25:57.164Z,0
2017-10-20T16:27:09.487Z,0
2017-10-20T16:28:21.823Z,0
2017-10-20T16:29:34.421Z,0
2017-10-20T16:30:46.426Z,0
2017-10-20T16:31:58.745Z,0
2017-10-20T16:33:11.369Z,0
2017-10-20T16:34:23.990Z,0
2017-10-20T16:35:36.629Z,0
2017-10-20T16:36:48.602Z,0
2017-10-20T16:38:00.916Z,0
2017-10-20T16:39:12.569Z,0
2017-10-20T16:40:24.878Z,0
2017-10-20T16:41:37.202Z,0
2017-10-20T16:42:49.527Z,0
2017-10-20T16:44:02.177Z,0
2017-10-20T16:45:14.769Z,0
2017-10-20T16:46:27.097Z,0
2017-10-20T16:47:39.393Z,0
2017-10-20T16:48:52.047Z,0
2017-10-20T16:50:04.355Z,0
2017-10-20T16:51:17.029Z,0
2017-10-20T16:52:29.663Z,0
2017-10-20T16:53:41.969Z,0
2017-10-20T16:54:54.289Z,0
2017-10-20T16:56:06.601Z,0
2017-10-20T16:57:19.296Z,0
2017-10-20T16:58:31.924Z,0
2017-10-20T16:59:44.546Z,0
2017-10-20T17:00:57.188Z,0
2017-10-20T17:02:08.538Z,0
2017-10-20T17:03:20.862Z,0
2017-10-20T17:04:33.159Z,0
2017-10-20T17:05:45.447Z,0
2017-10-20T17:06:58.367Z,0
2017-10-20T17:08:10.694Z,0
2017-10-20T17:09:23.328Z,0
2017-10-20T17:10:35.630Z,0
2017-10-20T17:11:47.926Z,0